sensor_id;sensor_type;location;lat;lon;timestamp;pressure;altitude;pressure_sealevel;temperature;humidity
57024;BME280;42916;54.346;18.562;2023-05-25T00:00:25;100754.55;;;13.34;83.63
57024;BME280;42916;54.346;18.562;2023-05-25T00:03:12;100749.05;;;13.29;84.28
57024;BME280;42916;54.346;18.562;2023-05-25T00:05:39;100752.29;;;13.25;84.50
57024;BME280;42916;54.346;18.562;2023-05-25T00:08:05;100753.08;;;13.23;85.35
57024;BME280;42916;54.346;18.562;2023-05-25T00:10:31;100755.15;;;13.20;85.65
57024;BME280;42916;54.346;18.562;2023-05-25T00:12:58;100754.81;;;13.18;85.83
57024;BME280;42916;54.346;18.562;2023-05-25T00:15:24;100750.80;;;13.15;86.72
57024;BME280;42916;54.346;18.562;2023-05-25T00:17:50;100746.45;;;13.11;87.06
57024;BME280;42916;54.346;18.562;2023-05-25T00:20:19;100750.17;;;13.10;87.52
57024;BME280;42916;54.346;18.562;2023-05-25T00:22:45;100747.59;;;13.10;87.87
57024;BME280;42916;54.346;18.562;2023-05-25T00:25:11;100752.63;;;13.09;87.59
57024;BME280;42916;54.346;18.562;2023-05-25T00:27:38;100748.85;;;13.09;88.37
57024;BME280;42916;54.346;18.562;2023-05-25T00:30:04;100748.34;;;13.08;89.13
57024;BME280;42916;54.346;18.562;2023-05-25T00:32:31;100745.60;;;13.06;89.40
57024;BME280;42916;54.346;18.562;2023-05-25T00:34:57;100749.95;;;13.04;90.06
57024;BME280;42916;54.346;18.562;2023-05-25T00:37:24;100751.88;;;13.03;89.58
57024;BME280;42916;54.346;18.562;2023-05-25T00:39:51;100753.51;;;13.03;91.07
57024;BME280;42916;54.346;18.562;2023-05-25T00:42:17;100756.79;;;13.02;91.09
57024;BME280;42916;54.346;18.562;2023-05-25T00:44:45;100757.10;;;13.01;92.73
57024;BME280;42916;54.346;18.562;2023-05-25T00:47:14;100763.89;;;13.02;92.28
57024;BME280;42916;54.346;18.562;2023-05-25T00:49:41;100766.73;;;13.03;93.54
57024;BME280;42916;54.346;18.562;2023-05-25T00:52:11;100769.30;;;13.02;94.54
57024;BME280;42916;54.346;18.562;2023-05-25T00:54:37;100772.63;;;13.03;93.72
57024;BME280;42916;54.346;18.562;2023-05-25T00:57:06;100766.84;;;13.05;93.74
57024;BME280;42916;54.346;18.562;2023-05-25T00:59:43;100765.70;;;13.06;93.81
57024;BME280;42916;54.346;18.562;2023-05-25T01:02:12;100769.66;;;13.08;94.05
57024;BME280;42916;54.346;18.562;2023-05-25T01:04:44;100766.05;;;13.08;93.35
57024;BME280;42916;54.346;18.562;2023-05-25T01:07:17;100772.27;;;13.07;93.92
57024;BME280;42916;54.346;18.562;2023-05-25T01:09:44;100770.73;;;13.07;94.72
57024;BME280;42916;54.346;18.562;2023-05-25T01:12:13;100767.11;;;13.05;94.73
57024;BME280;42916;54.346;18.562;2023-05-25T01:14:40;100767.81;;;13.03;95.35
57024;BME280;42916;54.346;18.562;2023-05-25T01:17:08;100770.48;;;13.02;94.91
57024;BME280;42916;54.346;18.562;2023-05-25T01:19:35;100764.33;;;13.02;95.03
57024;BME280;42916;54.346;18.562;2023-05-25T01:22:20;100766.32;;;12.99;96.29
57024;BME280;42916;54.346;18.562;2023-05-25T01:24:55;100763.58;;;12.97;95.87
57024;BME280;42916;54.346;18.562;2023-05-25T01:27:35;100761.72;;;12.97;94.85
57024;BME280;42916;54.346;18.562;2023-05-25T01:30:09;100755.53;;;12.95;95.28
57024;BME280;42916;54.346;18.562;2023-05-25T01:32:36;100755.61;;;12.92;96.08
57024;BME280;42916;54.346;18.562;2023-05-25T01:35:03;100767.98;;;12.89;96.76
57024;BME280;42916;54.346;18.562;2023-05-25T01:37:31;100762.79;;;12.86;97.13
57024;BME280;42916;54.346;18.562;2023-05-25T01:40:03;100763.26;;;12.83;97.41
57024;BME280;42916;54.346;18.562;2023-05-25T01:42:33;100768.64;;;12.81;98.66
57024;BME280;42916;54.346;18.562;2023-05-25T01:44:59;100767.31;;;12.77;99.02
57024;BME280;42916;54.346;18.562;2023-05-25T01:50:22;100768.96;;;12.73;97.99
57024;BME280;42916;54.346;18.562;2023-05-25T01:53:05;100778.16;;;12.70;98.99
57024;BME280;42916;54.346;18.562;2023-05-25T01:55:41;100777.91;;;12.68;98.63
57024;BME280;42916;54.346;18.562;2023-05-25T01:58:08;100778.84;;;12.66;99.05
57024;BME280;42916;54.346;18.562;2023-05-25T02:00:37;100779.86;;;12.65;98.81
57024;BME280;42916;54.346;18.562;2023-05-25T02:03:05;100777.52;;;12.65;98.59
57024;BME280;42916;54.346;18.562;2023-05-25T02:05:32;100780.50;;;12.62;99.33
57024;BME280;42916;54.346;18.562;2023-05-25T02:07:58;100781.30;;;12.59;99.08
57024;BME280;42916;54.346;18.562;2023-05-25T02:10:24;100784.16;;;12.56;99.87
57024;BME280;42916;54.346;18.562;2023-05-25T02:12:50;100776.98;;;12.54;99.82
57024;BME280;42916;54.346;18.562;2023-05-25T02:15:17;100782.90;;;12.51;100.00
57024;BME280;42916;54.346;18.562;2023-05-25T02:17:45;100783.98;;;12.48;99.99
57024;BME280;42916;54.346;18.562;2023-05-25T02:20:11;100780.14;;;12.47;99.78
57024;BME280;42916;54.346;18.562;2023-05-25T02:22:37;100781.83;;;12.46;99.87
57024;BME280;42916;54.346;18.562;2023-05-25T02:25:06;100780.80;;;12.42;99.96
57024;BME280;42916;54.346;18.562;2023-05-25T02:27:34;100774.90;;;12.41;99.31
57024;BME280;42916;54.346;18.562;2023-05-25T02:30:01;100772.57;;;12.42;98.96
57024;BME280;42916;54.346;18.562;2023-05-25T02:32:27;100770.28;;;12.42;98.45
57024;BME280;42916;54.346;18.562;2023-05-25T02:34:56;100771.95;;;12.41;98.69
57024;BME280;42916;54.346;18.562;2023-05-25T02:37:22;100770.19;;;12.39;98.39
57024;BME280;42916;54.346;18.562;2023-05-25T02:39:48;100771.52;;;12.36;98.36
57024;BME280;42916;54.346;18.562;2023-05-25T02:42:14;100775.61;;;12.35;97.71
57024;BME280;42916;54.346;18.562;2023-05-25T02:44:41;100776.80;;;12.33;98.95
57024;BME280;42916;54.346;18.562;2023-05-25T02:47:17;100776.43;;;12.30;98.88
57024;BME280;42916;54.346;18.562;2023-05-25T02:49:44;100776.45;;;12.27;99.00
57024;BME280;42916;54.346;18.562;2023-05-25T02:52:10;100780.66;;;12.27;98.76
57024;BME280;42916;54.346;18.562;2023-05-25T02:54:37;100778.70;;;12.28;98.38
57024;BME280;42916;54.346;18.562;2023-05-25T02:57:04;100777.49;;;12.28;98.59
57024;BME280;42916;54.346;18.562;2023-05-25T02:59:31;100778.30;;;12.26;99.03
57024;BME280;42916;54.346;18.562;2023-05-25T03:01:57;100773.33;;;12.25;98.79
57024;BME280;42916;54.346;18.562;2023-05-25T03:04:24;100770.23;;;12.22;98.94
57024;BME280;42916;54.346;18.562;2023-05-25T03:06:50;100765.48;;;12.21;98.83
57024;BME280;42916;54.346;18.562;2023-05-25T03:09:18;100767.42;;;12.19;99.02
57024;BME280;42916;54.346;18.562;2023-05-25T03:11:46;100766.23;;;12.18;99.55
57024;BME280;42916;54.346;18.562;2023-05-25T03:14:15;100766.08;;;12.16;100.00
57024;BME280;42916;54.346;18.562;2023-05-25T03:16:43;100762.68;;;12.14;100.00
57024;BME280;42916;54.346;18.562;2023-05-25T03:19:10;100760.73;;;12.14;99.98
57024;BME280;42916;54.346;18.562;2023-05-25T03:21:37;100766.70;;;12.13;100.00
57024;BME280;42916;54.346;18.562;2023-05-25T03:24:04;100768.30;;;12.13;100.00
57024;BME280;42916;54.346;18.562;2023-05-25T03:26:31;100769.17;;;12.14;100.00
57024;BME280;42916;54.346;18.562;2023-05-25T03:28:58;100768.38;;;12.16;100.00
57024;BME280;42916;54.346;18.562;2023-05-25T03:31:24;100770.60;;;12.15;100.00
57024;BME280;42916;54.346;18.562;2023-05-25T03:33:50;100773.41;;;12.12;100.00
57024;BME280;42916;54.346;18.562;2023-05-25T03:36:17;100779.45;;;12.11;100.00
57024;BME280;42916;54.346;18.562;2023-05-25T03:38:43;100775.52;;;12.10;100.00
57024;BME280;42916;54.346;18.562;2023-05-25T03:41:10;100779.56;;;12.11;100.00
57024;BME280;42916;54.346;18.562;2023-05-25T03:43:36;100782.52;;;12.13;100.00
57024;BME280;42916;54.346;18.562;2023-05-25T03:46:03;100782.98;;;12.15;100.00
57024;BME280;42916;54.346;18.562;2023-05-25T03:48:30;100780.72;;;12.17;100.00
57024;BME280;42916;54.346;18.562;2023-05-25T03:50:56;100782.32;;;12.19;100.00
57024;BME280;42916;54.346;18.562;2023-05-25T03:53:22;100783.09;;;12.19;100.00
57024;BME280;42916;54.346;18.562;2023-05-25T03:55:48;100781.95;;;12.20;100.00
57024;BME280;42916;54.346;18.562;2023-05-25T03:58:17;100786.27;;;12.22;100.00
57024;BME280;42916;54.346;18.562;2023-05-25T04:00:43;100787.06;;;12.24;100.00
57024;BME280;42916;54.346;18.562;2023-05-25T04:03:09;100790.25;;;12.26;100.00
57024;BME280;42916;54.346;18.562;2023-05-25T04:05:36;100788.59;;;12.29;100.00
57024;BME280;42916;54.346;18.562;2023-05-25T04:08:03;100781.05;;;12.34;100.00
57024;BME280;42916;54.346;18.562;2023-05-25T04:10:29;100781.91;;;12.37;100.00
57024;BME280;42916;54.346;18.562;2023-05-25T04:12:55;100776.02;;;12.42;100.00
57024;BME280;42916;54.346;18.562;2023-05-25T04:15:22;100774.96;;;12.47;100.00
57024;BME280;42916;54.346;18.562;2023-05-25T04:18:08;100773.48;;;12.54;100.00
57024;BME280;42916;54.346;18.562;2023-05-25T04:20:34;100776.13;;;12.62;99.86
57024;BME280;42916;54.346;18.562;2023-05-25T04:23:00;100774.80;;;12.68;99.97
57024;BME280;42916;54.346;18.562;2023-05-25T04:25:26;100774.89;;;12.70;99.98
57024;BME280;42916;54.346;18.562;2023-05-25T04:27:54;100779.61;;;12.76;99.97
57024;BME280;42916;54.346;18.562;2023-05-25T04:30:41;100787.17;;;12.84;99.59
57024;BME280;42916;54.346;18.562;2023-05-25T04:33:37;100785.16;;;12.93;99.35
57024;BME280;42916;54.346;18.562;2023-05-25T04:36:22;100789.75;;;13.00;99.38
57024;BME280;42916;54.346;18.562;2023-05-25T04:38:49;100781.49;;;13.06;98.90
57024;BME280;42916;54.346;18.562;2023-05-25T04:41:17;100787.55;;;13.13;98.62
57024;BME280;42916;54.346;18.562;2023-05-25T04:43:48;100795.90;;;13.18;98.48
57024;BME280;42916;54.346;18.562;2023-05-25T04:46:16;100797.13;;;13.24;98.28
57024;BME280;42916;54.346;18.562;2023-05-25T04:48:43;100795.39;;;13.31;98.01
57024;BME280;42916;54.346;18.562;2023-05-25T04:51:11;100802.39;;;13.39;97.78
57024;BME280;42916;54.346;18.562;2023-05-25T04:53:37;100803.21;;;13.49;97.52
57024;BME280;42916;54.346;18.562;2023-05-25T04:56:03;100809.14;;;13.63;97.28
57024;BME280;42916;54.346;18.562;2023-05-25T04:58:30;100812.36;;;13.74;96.89
57024;BME280;42916;54.346;18.562;2023-05-25T05:00:58;100805.45;;;13.83;96.33
57024;BME280;42916;54.346;18.562;2023-05-25T05:03:24;100804.60;;;13.88;95.92
57024;BME280;42916;54.346;18.562;2023-05-25T05:05:50;100804.78;;;13.93;95.35
57024;BME280;42916;54.346;18.562;2023-05-25T05:08:23;100805.48;;;14.01;95.21
57024;BME280;42916;54.346;18.562;2023-05-25T05:10:50;100806.70;;;14.09;94.95
57024;BME280;42916;54.346;18.562;2023-05-25T05:13:16;100806.40;;;14.18;94.51
57024;BME280;42916;54.346;18.562;2023-05-25T05:15:43;100805.44;;;14.27;94.42
57024;BME280;42916;54.346;18.562;2023-05-25T05:18:09;100810.05;;;14.36;94.00
57024;BME280;42916;54.346;18.562;2023-05-25T05:20:35;100810.45;;;14.43;93.74
57024;BME280;42916;54.346;18.562;2023-05-25T05:23:01;100803.73;;;14.51;93.33
57024;BME280;42916;54.346;18.562;2023-05-25T05:25:28;100800.98;;;14.57;93.02
57024;BME280;42916;54.346;18.562;2023-05-25T05:27:54;100802.73;;;14.64;92.46
57024;BME280;42916;54.346;18.562;2023-05-25T05:30:26;100808.71;;;14.72;92.02
57024;BME280;42916;54.346;18.562;2023-05-25T05:32:52;100807.17;;;14.78;91.73
57024;BME280;42916;54.346;18.562;2023-05-25T05:35:21;100808.39;;;14.84;91.10
57024;BME280;42916;54.346;18.562;2023-05-25T05:37:47;100811.45;;;14.87;90.38
57024;BME280;42916;54.346;18.562;2023-05-25T05:40:14;100808.48;;;14.93;90.49
57024;BME280;42916;54.346;18.562;2023-05-25T05:42:41;100808.17;;;15.03;90.33
57024;BME280;42916;54.346;18.562;2023-05-25T05:45:09;100804.27;;;15.12;90.07
57024;BME280;42916;54.346;18.562;2023-05-25T05:47:35;100805.58;;;15.20;89.44
57024;BME280;42916;54.346;18.562;2023-05-25T05:50:01;100813.13;;;15.29;89.08
57024;BME280;42916;54.346;18.562;2023-05-25T05:52:28;100815.95;;;15.37;88.43
57024;BME280;42916;54.346;18.562;2023-05-25T05:54:55;100819.11;;;15.43;86.81
57024;BME280;42916;54.346;18.562;2023-05-25T05:57:22;100816.97;;;15.50;87.24
57024;BME280;42916;54.346;18.562;2023-05-25T05:59:48;100819.56;;;15.61;87.14
57024;BME280;42916;54.346;18.562;2023-05-25T06:02:14;100816.41;;;15.73;86.81
57024;BME280;42916;54.346;18.562;2023-05-25T06:04:40;100826.48;;;15.84;86.34
57024;BME280;42916;54.346;18.562;2023-05-25T06:07:06;100824.03;;;15.96;85.88
57024;BME280;42916;54.346;18.562;2023-05-25T06:09:32;100828.55;;;16.03;84.29
57024;BME280;42916;54.346;18.562;2023-05-25T06:11:59;100827.91;;;16.11;83.92
57024;BME280;42916;54.346;18.562;2023-05-25T06:14:27;100824.79;;;16.22;84.18
57024;BME280;42916;54.346;18.562;2023-05-25T06:16:53;100827.41;;;16.34;84.04
57024;BME280;42916;54.346;18.562;2023-05-25T06:19:19;100828.73;;;16.44;83.32
57024;BME280;42916;54.346;18.562;2023-05-25T06:21:46;100832.19;;;16.52;82.45
57024;BME280;42916;54.346;18.562;2023-05-25T06:24:13;100836.34;;;16.63;82.39
57024;BME280;42916;54.346;18.562;2023-05-25T06:26:40;100835.78;;;16.72;81.99
57024;BME280;42916;54.346;18.562;2023-05-25T06:29:07;100837.14;;;16.85;81.78
57024;BME280;42916;54.346;18.562;2023-05-25T06:31:33;100841.23;;;16.97;81.54
57024;BME280;42916;54.346;18.562;2023-05-25T06:33:59;100841.77;;;17.05;80.57
57024;BME280;42916;54.346;18.562;2023-05-25T06:36:25;100843.96;;;17.12;79.27
57024;BME280;42916;54.346;18.562;2023-05-25T06:38:53;100851.15;;;17.21;79.57
57024;BME280;42916;54.346;18.562;2023-05-25T06:41:19;100853.02;;;17.32;79.55
57024;BME280;42916;54.346;18.562;2023-05-25T06:43:45;100862.09;;;17.40;78.61
57024;BME280;42916;54.346;18.562;2023-05-25T06:46:22;100862.04;;;17.44;78.17
57024;BME280;42916;54.346;18.562;2023-05-25T06:48:48;100859.10;;;17.46;77.33
57024;BME280;42916;54.346;18.562;2023-05-25T06:51:14;100860.39;;;17.48;76.91
57024;BME280;42916;54.346;18.562;2023-05-25T06:53:40;100865.62;;;17.55;76.67
57024;BME280;42916;54.346;18.562;2023-05-25T06:56:06;100866.25;;;17.61;76.42
57024;BME280;42916;54.346;18.562;2023-05-25T06:58:32;100867.11;;;17.64;75.64
57024;BME280;42916;54.346;18.562;2023-05-25T07:00:58;100866.67;;;17.67;75.19
57024;BME280;42916;54.346;18.562;2023-05-25T07:03:25;100865.76;;;17.73;74.79
57024;BME280;42916;54.346;18.562;2023-05-25T07:05:52;100864.90;;;17.76;74.42
57024;BME280;42916;54.346;18.562;2023-05-25T07:08:18;100860.94;;;17.81;74.14
57024;BME280;42916;54.346;18.562;2023-05-25T07:10:44;100864.93;;;17.83;73.86
57024;BME280;42916;54.346;18.562;2023-05-25T07:13:10;100874.01;;;17.90;73.69
57024;BME280;42916;54.346;18.562;2023-05-25T07:15:36;100871.58;;;17.96;73.18
57024;BME280;42916;54.346;18.562;2023-05-25T07:18:02;100870.20;;;18.02;72.36
57024;BME280;42916;54.346;18.562;2023-05-25T07:20:28;100871.46;;;18.06;72.24
57024;BME280;42916;54.346;18.562;2023-05-25T07:22:54;100868.58;;;18.12;71.95
57024;BME280;42916;54.346;18.562;2023-05-25T07:25:21;100873.98;;;18.17;71.42
57024;BME280;42916;54.346;18.562;2023-05-25T07:27:48;100873.47;;;18.21;70.95
57024;BME280;42916;54.346;18.562;2023-05-25T07:30:15;100876.33;;;18.27;69.91
57024;BME280;42916;54.346;18.562;2023-05-25T07:32:41;100876.86;;;18.32;69.74
57024;BME280;42916;54.346;18.562;2023-05-25T07:35:08;100883.40;;;18.37;69.45
57024;BME280;42916;54.346;18.562;2023-05-25T07:37:33;100881.53;;;18.53;70.36
57024;BME280;42916;54.346;18.562;2023-05-25T07:39:59;100890.64;;;18.75;69.85
57024;BME280;42916;54.346;18.562;2023-05-25T07:42:26;100885.00;;;18.93;69.21
57024;BME280;42916;54.346;18.562;2023-05-25T07:44:59;100891.79;;;19.06;67.46
57024;BME280;42916;54.346;18.562;2023-05-25T07:47:26;100895.99;;;19.05;66.22
57024;BME280;42916;54.346;18.562;2023-05-25T07:49:52;100899.67;;;19.10;66.43
57024;BME280;42916;54.346;18.562;2023-05-25T07:52:19;100906.52;;;19.16;66.62
57024;BME280;42916;54.346;18.562;2023-05-25T07:54:45;100909.13;;;19.29;67.24
57024;BME280;42916;54.346;18.562;2023-05-25T07:57:11;100906.39;;;19.40;66.80
57024;BME280;42916;54.346;18.562;2023-05-25T07:59:37;100906.92;;;19.41;65.41
57024;BME280;42916;54.346;18.562;2023-05-25T08:02:03;100906.72;;;19.34;64.85
57024;BME280;42916;54.346;18.562;2023-05-25T08:04:29;100912.34;;;19.28;64.51
57024;BME280;42916;54.346;18.562;2023-05-25T08:06:55;100912.66;;;19.25;64.77
57024;BME280;42916;54.346;18.562;2023-05-25T08:09:22;100909.11;;;19.16;64.43
57024;BME280;42916;54.346;18.562;2023-05-25T08:11:48;100915.17;;;19.06;64.10
57024;BME280;42916;54.346;18.562;2023-05-25T08:14:15;100913.61;;;19.00;64.60
57024;BME280;42916;54.346;18.562;2023-05-25T08:16:41;100923.82;;;18.95;63.58
57024;BME280;42916;54.346;18.562;2023-05-25T08:19:07;100928.36;;;18.91;64.35
57024;BME280;42916;54.346;18.562;2023-05-25T08:21:33;100927.45;;;18.97;64.36
57024;BME280;42916;54.346;18.562;2023-05-25T08:24:03;100933.99;;;19.09;64.60
57024;BME280;42916;54.346;18.562;2023-05-25T08:26:29;100930.67;;;19.26;64.81
57024;BME280;42916;54.346;18.562;2023-05-25T08:28:55;100929.61;;;19.47;64.40
57024;BME280;42916;54.346;18.562;2023-05-25T08:31:21;100936.01;;;19.57;63.79
57024;BME280;42916;54.346;18.562;2023-05-25T08:33:47;100935.55;;;19.75;63.78
57024;BME280;42916;54.346;18.562;2023-05-25T08:36:13;100935.45;;;19.86;62.58
57024;BME280;42916;54.346;18.562;2023-05-25T08:38:40;100935.20;;;19.88;61.95
57024;BME280;42916;54.346;18.562;2023-05-25T08:41:07;100932.13;;;19.90;62.23
57024;BME280;42916;54.346;18.562;2023-05-25T08:43:33;100933.92;;;19.88;61.68
57024;BME280;42916;54.346;18.562;2023-05-25T08:46:04;100929.22;;;19.81;60.78
57024;BME280;42916;54.346;18.562;2023-05-25T08:48:35;100934.53;;;19.71;60.59
57024;BME280;42916;54.346;18.562;2023-05-25T08:51:09;100934.23;;;19.66;60.72
57024;BME280;42916;54.346;18.562;2023-05-25T08:53:40;100943.59;;;19.72;61.37
57024;BME280;42916;54.346;18.562;2023-05-25T08:56:21;100945.21;;;19.78;61.00
57024;BME280;42916;54.346;18.562;2023-05-25T09:01:32;100948.05;;;19.91;60.29
57024;BME280;42916;54.346;18.562;2023-05-25T09:04:00;100945.46;;;19.97;59.46
57024;BME280;42916;54.346;18.562;2023-05-25T09:06:26;100954.32;;;19.90;57.81
57024;BME280;42916;54.346;18.562;2023-05-25T09:08:53;100952.77;;;19.88;58.23
57024;BME280;42916;54.346;18.562;2023-05-25T09:11:20;100956.23;;;19.86;57.88
57024;BME280;42916;54.346;18.562;2023-05-25T09:13:47;100961.45;;;19.78;58.24
57024;BME280;42916;54.346;18.562;2023-05-25T09:16:14;100955.65;;;19.81;58.88
57024;BME280;42916;54.346;18.562;2023-05-25T09:18:41;100958.72;;;19.91;58.88
57024;BME280;42916;54.346;18.562;2023-05-25T09:21:07;100957.11;;;20.04;59.38
57024;BME280;42916;54.346;18.562;2023-05-25T09:23:34;100959.59;;;20.15;58.87
57024;BME280;42916;54.346;18.562;2023-05-25T09:26:00;100957.45;;;20.15;58.58
57024;BME280;42916;54.346;18.562;2023-05-25T09:28:26;100957.89;;;20.23;59.13
57024;BME280;42916;54.346;18.562;2023-05-25T09:30:53;100952.19;;;20.35;59.16
57024;BME280;42916;54.346;18.562;2023-05-25T09:33:19;100954.83;;;20.41;59.21
57024;BME280;42916;54.346;18.562;2023-05-25T09:35:46;100952.14;;;20.51;58.85
57024;BME280;42916;54.346;18.562;2023-05-25T09:38:14;100959.15;;;20.51;58.09
57024;BME280;42916;54.346;18.562;2023-05-25T09:40:40;100958.30;;;20.44;58.19
57024;BME280;42916;54.346;18.562;2023-05-25T09:43:07;100956.71;;;20.29;57.21
57024;BME280;42916;54.346;18.562;2023-05-25T09:45:33;100957.30;;;20.14;57.72
57024;BME280;42916;54.346;18.562;2023-05-25T09:48:01;100958.41;;;20.08;58.03
57024;BME280;42916;54.346;18.562;2023-05-25T09:50:28;100954.20;;;20.06;58.18
57024;BME280;42916;54.346;18.562;2023-05-25T09:52:58;100953.96;;;20.03;58.11
57024;BME280;42916;54.346;18.562;2023-05-25T09:55:28;100950.61;;;19.96;57.88
57024;BME280;42916;54.346;18.562;2023-05-25T09:57:56;100952.68;;;19.95;57.48
57024;BME280;42916;54.346;18.562;2023-05-25T10:00:23;100952.67;;;19.93;58.52
57024;BME280;42916;54.346;18.562;2023-05-25T10:02:50;100953.88;;;20.10;58.83
57024;BME280;42916;54.346;18.562;2023-05-25T10:05:16;100950.28;;;20.25;58.37
57024;BME280;42916;54.346;18.562;2023-05-25T10:07:46;100949.08;;;20.33;58.94
57024;BME280;42916;54.346;18.562;2023-05-25T10:10:14;100949.15;;;20.48;58.85
57024;BME280;42916;54.346;18.562;2023-05-25T10:12:42;100956.27;;;20.57;57.25
57024;BME280;42916;54.346;18.562;2023-05-25T10:15:12;100959.73;;;20.66;56.94
57024;BME280;42916;54.346;18.562;2023-05-25T10:18:08;100946.42;;;20.75;57.02
57024;BME280;42916;54.346;18.562;2023-05-25T10:20:36;100942.81;;;20.96;56.99
57024;BME280;42916;54.346;18.562;2023-05-25T10:23:07;100952.55;;;21.07;56.10
57024;BME280;42916;54.346;18.562;2023-05-25T10:25:47;100950.65;;;21.04;55.85
57024;BME280;42916;54.346;18.562;2023-05-25T10:30:41;100951.60;;;21.38;55.39
57024;BME280;42916;54.346;18.562;2023-05-25T10:33:09;100959.98;;;21.56;54.81
57024;BME280;42916;54.346;18.562;2023-05-25T10:35:38;100950.48;;;21.57;54.48
57024;BME280;42916;54.346;18.562;2023-05-25T10:38:04;100950.53;;;21.49;54.35
57024;BME280;42916;54.346;18.562;2023-05-25T10:40:32;100956.25;;;21.48;53.86
57024;BME280;42916;54.346;18.562;2023-05-25T10:42:59;100959.95;;;21.38;52.96
57024;BME280;42916;54.346;18.562;2023-05-25T10:45:27;100959.30;;;21.31;53.21
57024;BME280;42916;54.346;18.562;2023-05-25T10:47:53;100960.73;;;21.42;53.72
57024;BME280;42916;54.346;18.562;2023-05-25T10:50:24;100954.58;;;21.60;53.42
57024;BME280;42916;54.346;18.562;2023-05-25T10:52:59;100956.82;;;21.67;52.96
57024;BME280;42916;54.346;18.562;2023-05-25T10:55:27;100957.34;;;21.77;53.06
57024;BME280;42916;54.346;18.562;2023-05-25T10:58:11;100954.27;;;21.82;52.30
57024;BME280;42916;54.346;18.562;2023-05-25T11:00:38;100958.95;;;21.85;52.34
57024;BME280;42916;54.346;18.562;2023-05-25T11:03:06;100956.63;;;21.83;51.47
57024;BME280;42916;54.346;18.562;2023-05-25T11:05:37;100957.71;;;21.88;51.86
57024;BME280;42916;54.346;18.562;2023-05-25T11:08:05;100954.13;;;21.93;51.80
57024;BME280;42916;54.346;18.562;2023-05-25T11:18:56;100952.07;;;22.28;50.27
57024;BME280;42916;54.346;18.562;2023-05-25T11:23:56;100949.11;;;22.72;50.82
57024;BME280;42916;54.346;18.562;2023-05-25T11:26:27;100953.57;;;22.92;50.93
57024;BME280;42916;54.346;18.562;2023-05-25T11:28:55;100960.17;;;23.14;50.18
57024;BME280;42916;54.346;18.562;2023-05-25T11:31:31;100961.23;;;23.29;48.77
57024;BME280;42916;54.346;18.562;2023-05-25T11:33:59;100961.53;;;23.27;49.04
57024;BME280;42916;54.346;18.562;2023-05-25T11:36:26;100960.88;;;23.29;48.73
57024;BME280;42916;54.346;18.562;2023-05-25T11:38:56;100958.95;;;23.29;48.07
57024;BME280;42916;54.346;18.562;2023-05-25T11:41:23;100966.67;;;23.34;48.42
57024;BME280;42916;54.346;18.562;2023-05-25T11:43:50;100972.80;;;23.57;48.10
57024;BME280;42916;54.346;18.562;2023-05-25T11:46:20;100970.38;;;23.81;47.98
57024;BME280;42916;54.346;18.562;2023-05-25T11:48:51;100962.92;;;23.85;47.84
57024;BME280;42916;54.346;18.562;2023-05-25T11:51:19;100961.94;;;23.78;47.53
57024;BME280;42916;54.346;18.562;2023-05-25T11:53:46;100971.08;;;23.67;47.14
57024;BME280;42916;54.346;18.562;2023-05-25T11:56:13;100969.60;;;23.33;47.15
57024;BME280;42916;54.346;18.562;2023-05-25T11:58:41;100962.13;;;23.12;47.60
57024;BME280;42916;54.346;18.562;2023-05-25T12:01:12;100967.19;;;23.23;47.80
57024;BME280;42916;54.346;18.562;2023-05-25T12:03:40;100972.38;;;23.14;47.20
57024;BME280;42916;54.346;18.562;2023-05-25T12:06:06;100973.55;;;22.73;47.34
57024;BME280;42916;54.346;18.562;2023-05-25T12:08:36;100976.39;;;22.45;47.83
57024;BME280;42916;54.346;18.562;2023-05-25T12:11:02;100978.41;;;22.14;48.25
57024;BME280;42916;54.346;18.562;2023-05-25T12:13:29;100979.72;;;21.91;48.88
57024;BME280;42916;54.346;18.562;2023-05-25T12:15:56;100978.18;;;21.76;49.08
57024;BME280;42916;54.346;18.562;2023-05-25T12:18:28;100981.15;;;21.41;49.41
57024;BME280;42916;54.346;18.562;2023-05-25T12:20:55;100977.77;;;21.13;50.24
57024;BME280;42916;54.346;18.562;2023-05-25T12:23:22;100976.36;;;21.00;50.57
57024;BME280;42916;54.346;18.562;2023-05-25T12:25:48;100973.23;;;20.91;51.02
57024;BME280;42916;54.346;18.562;2023-05-25T12:28:16;100973.59;;;20.82;50.91
57024;BME280;42916;54.346;18.562;2023-05-25T12:30:42;100972.23;;;20.74;50.94
57024;BME280;42916;54.346;18.562;2023-05-25T12:33:11;100966.91;;;20.72;50.98
57024;BME280;42916;54.346;18.562;2023-05-25T12:35:46;100963.73;;;20.65;51.18
57024;BME280;42916;54.346;18.562;2023-05-25T12:38:17;100965.70;;;20.60;51.43
57024;BME280;42916;54.346;18.562;2023-05-25T12:40:43;100966.30;;;20.60;51.74
57024;BME280;42916;54.346;18.562;2023-05-25T12:43:10;100971.73;;;20.54;51.81
57024;BME280;42916;54.346;18.562;2023-05-25T12:45:40;100964.33;;;20.39;52.29
57024;BME280;42916;54.346;18.562;2023-05-25T12:48:07;100969.56;;;20.28;52.98
57024;BME280;42916;54.346;18.562;2023-05-25T12:50:33;100974.69;;;20.14;53.21
57024;BME280;42916;54.346;18.562;2023-05-25T12:53:01;100973.35;;;19.95;53.67
57024;BME280;42916;54.346;18.562;2023-05-25T12:55:32;100972.87;;;19.84;54.14
57024;BME280;42916;54.346;18.562;2023-05-25T12:58:01;100968.86;;;19.73;54.60
57024;BME280;42916;54.346;18.562;2023-05-25T13:00:34;100969.23;;;19.74;54.95